createdAt,value
2022-08-05T00:00:46.615Z,22.29
2022-08-05T00:01:48.994Z,22.31
2022-08-05T00:02:49.137Z,22.20
2022-08-05T00:03:43.950Z,22.20
2022-08-05T00:04:43.931Z,22.34
2022-08-05T00:06:05.729Z,22.28
2022-08-05T00:06:43.869Z,22.28
2022-08-05T00:08:00.094Z,22.44
2022-08-05T00:08:43.846Z,22.37
2022-08-05T00:09:44.051Z,22.35
2022-08-05T00:10:43.821Z,22.39
2022-08-05T00:11:48.440Z,22.41
2022-08-05T00:12:48.490Z,22.39
2022-08-05T00:13:43.777Z,22.43
2022-08-05T00:14:43.754Z,22.47
2022-08-05T00:15:56.349Z,22.69
2022-08-05T00:16:52.983Z,22.96
2022-08-05T00:17:43.710Z,23.68
2022-08-05T00:18:44.380Z,24.47
2022-08-05T00:19:45.821Z,25.38
2022-08-05T00:20:43.663Z,25.84
2022-08-05T00:21:43.648Z,25.98
2022-08-05T00:22:47.181Z,26.36
2022-08-05T00:23:45.834Z,26.49
2022-08-05T00:24:43.603Z,26.58
2022-08-05T00:25:45.590Z,26.65
2022-08-05T00:26:50.721Z,26.74
2022-08-05T00:27:43.599Z,26.83
2022-08-05T00:28:43.545Z,26.89
2022-08-05T00:29:43.537Z,26.79
2022-08-05T00:30:44.061Z,26.62
2022-08-05T00:32:10.471Z,26.64
2022-08-05T00:32:43.490Z,26.62
2022-08-05T00:34:54.967Z,26.69
2022-08-05T00:35:05.542Z,26.62
2022-08-05T00:35:47.727Z,26.61
2022-08-05T00:37:09.721Z,26.55
2022-08-05T00:37:53.256Z,26.57
2022-08-05T00:38:43.423Z,26.52
2022-08-05T00:39:44.476Z,26.49
2022-08-05T00:40:53.141Z,26.47
2022-08-05T00:41:54.965Z,26.39
2022-08-05T00:42:43.357Z,26.40
2022-08-05T00:43:47.282Z,26.31
2022-08-05T00:44:43.328Z,26.28
2022-08-05T00:45:44.024Z,26.29
2022-08-05T00:46:43.771Z,26.15
2022-08-05T00:47:56.833Z,26.05
2022-08-05T00:48:51.492Z,26.06
2022-08-05T00:49:44.644Z,26.09
2022-08-05T00:50:44.351Z,25.98
2022-08-05T00:51:50.978Z,26.01
2022-08-05T00:52:45.499Z,25.87
2022-08-05T00:54:00.765Z,25.82
2022-08-05T00:54:43.372Z,25.84
2022-08-05T00:55:43.739Z,25.83
2022-08-05T00:56:45.064Z,25.68
2022-08-05T00:57:58.282Z,25.68
2022-08-05T00:58:44.961Z,25.75
2022-08-05T00:59:44.739Z,25.75
2022-08-05T01:00:43.141Z,25.69
2022-08-05T01:01:48.526Z,25.69
2022-08-05T01:02:43.096Z,25.69
2022-08-05T01:03:43.082Z,25.57
2022-08-05T01:04:43.069Z,25.54
2022-08-05T01:05:43.066Z,25.50
2022-08-05T01:06:46.749Z,25.43
2022-08-05T01:08:29.824Z,25.44
2022-08-05T01:08:44.532Z,25.39
2022-08-05T01:09:42.992Z,25.32
2022-08-05T01:10:52.436Z,25.34
2022-08-05T01:11:42.970Z,25.19
2022-08-05T01:12:54.267Z,25.24
2022-08-05T01:13:59.082Z,25.16
2022-08-05T01:14:42.935Z,25.34
2022-08-05T01:15:47.983Z,25.42
2022-08-05T01:16:44.364Z,25.38
2022-08-05T01:17:44.101Z,25.38
2022-08-05T01:18:42.871Z,25.35
2022-08-05T01:20:02.306Z,25.38
2022-08-05T01:20:42.848Z,25.34
2022-08-05T01:21:42.838Z,25.37
2022-08-05T01:22:42.823Z,25.30
2022-08-05T01:23:42.804Z,25.19
2022-08-05T01:24:42.804Z,25.22
2022-08-05T01:25:42.783Z,25.24
2022-08-05T01:26:42.765Z,25.20
2022-08-05T01:27:55.317Z,25.24
2022-08-05T01:28:42.738Z,25.17
2022-08-05T01:29:43.020Z,25.07
2022-08-05T01:30:50.600Z,25.02
2022-08-05T01:31:45.182Z,25.02
2022-08-05T01:32:42.682Z,25.01
2022-08-05T01:33:42.672Z,25.00
2022-08-05T01:34:42.659Z,24.95
2022-08-05T01:35:51.195Z,24.94
2022-08-05T01:36:47.004Z,25.01
2022-08-05T01:37:44.367Z,24.98
2022-08-05T01:38:42.601Z,25.02
2022-08-05T01:39:47.016Z,25.12
2022-08-05T01:40:42.586Z,25.12
2022-08-05T01:41:44.498Z,25.12
2022-08-05T01:42:42.548Z,25.07
2022-08-05T01:43:42.558Z,25.02
2022-08-05T01:44:42.517Z,25.01
2022-08-05T01:45:42.860Z,24.98
2022-08-05T01:46:46.364Z,24.94
2022-08-05T01:47:43.491Z,24.87
2022-08-05T01:48:42.470Z,24.85
2022-08-05T01:49:59.991Z,24.87
2022-08-05T01:50:50.897Z,24.77
2022-08-05T01:51:42.426Z,24.64
2022-08-05T01:52:42.419Z,24.67
2022-08-05T01:53:57.699Z,24.61
2022-08-05T01:54:46.101Z,24.56
2022-08-05T01:55:42.383Z,24.57
2022-08-05T01:58:12.152Z,24.52
2022-08-05T01:58:12.153Z,24.38
2022-08-05T01:58:45.104Z,24.32
2022-08-05T01:59:42.332Z,24.24
2022-08-05T02:00:42.313Z,24.29
2022-08-05T02:01:42.313Z,24.22
2022-08-05T02:02:51.102Z,24.22
2022-08-05T02:03:42.270Z,24.19
2022-08-05T02:04:42.245Z,24.10
2022-08-05T02:05:42.680Z,24.10
2022-08-05T02:06:42.219Z,24.02
2022-08-05T02:07:42.206Z,24.00
2022-08-05T02:08:44.826Z,23.98
2022-08-05T02:09:42.175Z,23.87
2022-08-05T02:10:42.189Z,23.80
2022-08-05T02:11:42.493Z,23.80
2022-08-05T02:12:42.134Z,23.80
2022-08-05T02:13:53.403Z,23.80
2022-08-05T02:14:42.106Z,23.85
2022-08-05T02:15:42.106Z,23.80
2022-08-05T02:16:42.117Z,23.94
2022-08-05T02:18:28.136Z,23.86
2022-08-05T02:18:42.194Z,23.85
2022-08-05T02:19:47.201Z,23.79
2022-08-05T02:20:42.026Z,23.79
2022-08-05T02:21:43.353Z,23.87
2022-08-05T02:22:42.001Z,23.98
2022-08-05T02:23:41.983Z,24.10
2022-08-05T02:24:41.965Z,24.16
2022-08-05T02:25:49.968Z,24.07
2022-08-05T02:26:53.796Z,24.07
2022-08-05T02:27:59.830Z,24.02
2022-08-05T02:28:45.812Z,23.92
2022-08-05T02:29:59.556Z,23.89
2022-08-05T02:30:51.538Z,23.79
2022-08-05T02:31:41.872Z,23.80
2022-08-05T02:32:41.858Z,23.70
2022-08-05T02:33:41.846Z,23.68
2022-08-05T02:34:41.829Z,23.71
2022-08-05T02:35:50.992Z,23.62
2022-08-05T02:36:41.809Z,23.61
2022-08-05T02:37:41.792Z,23.60
2022-08-05T02:38:41.778Z,23.61
2022-08-05T02:39:41.797Z,23.58
2022-08-05T02:40:41.751Z,23.53
2022-08-05T02:41:58.112Z,23.58
2022-08-05T02:42:41.715Z,23.57
2022-08-05T02:44:02.663Z,23.47
2022-08-05T02:44:41.685Z,23.50
2022-08-05T02:45:51.969Z,23.50
2022-08-05T02:46:53.397Z,23.47
2022-08-05T02:48:07.515Z,23.40
2022-08-05T02:48:41.632Z,23.45
2022-08-05T02:49:41.617Z,23.46
2022-08-05T02:50:43.542Z,23.39
2022-08-05T02:52:03.050Z,23.40
2022-08-05T02:52:41.575Z,23.35
2022-08-05T02:53:41.559Z,23.35
2022-08-05T02:54:42.284Z,23.32
2022-08-05T02:55:54.282Z,23.26
2022-08-05T02:56:41.512Z,23.32
2022-08-05T02:58:09.161Z,23.35
2022-08-05T02:58:43.674Z,23.32
2022-08-05T02:59:50.248Z,23.35
2022-08-05T03:00:41.455Z,23.52
2022-08-05T03:01:41.506Z,23.55
2022-08-05T03:02:42.894Z,23.62
2022-08-05T03:04:02.733Z,23.83
2022-08-05T03:04:41.416Z,23.80
2022-08-05T03:06:53.575Z,23.86
2022-08-05T03:06:55.565Z,23.80
2022-08-05T03:07:59.179Z,23.80
2022-08-05T03:08:42.738Z,23.79
2022-08-05T03:09:43.967Z,23.83
2022-08-05T03:10:41.315Z,23.98
2022-08-05T03:11:55.202Z,23.97
2022-08-05T03:12:41.319Z,23.98
2022-08-05T03:13:52.019Z,24.17
2022-08-05T03:14:46.148Z,24.19
2022-08-05T03:15:41.253Z,24.22
2022-08-05T03:16:41.253Z,24.17
2022-08-05T03:17:42.025Z,24.16
2022-08-05T03:18:42.110Z,24.22
2022-08-05T03:19:41.857Z,24.22
2022-08-05T03:20:44.701Z,24.23
2022-08-05T03:21:41.501Z,24.07
2022-08-05T03:22:44.193Z,24.16
2022-08-05T03:23:41.137Z,24.12
2022-08-05T03:24:41.135Z,24.19
2022-08-05T03:26:04.366Z,24.08
2022-08-05T03:26:41.110Z,23.92
2022-08-05T03:28:00.141Z,23.92
2022-08-05T03:28:41.068Z,23.87
2022-08-05T03:29:45.721Z,23.80
2022-08-05T03:30:41.271Z,23.80
2022-08-05T03:31:56.704Z,23.79
2022-08-05T03:32:41.003Z,23.75
2022-08-05T03:33:50.941Z,23.70
2022-08-05T03:34:40.980Z,23.60
2022-08-05T03:35:41.831Z,23.58
2022-08-05T03:36:40.952Z,23.58
2022-08-05T03:37:46.382Z,23.46
2022-08-05T03:38:40.922Z,23.45
2022-08-05T03:39:58.431Z,23.34
2022-08-05T03:40:41.016Z,23.32
2022-08-05T03:41:45.422Z,23.22
2022-08-05T03:42:51.401Z,23.20
2022-08-05T03:44:09.366Z,23.12
2022-08-05T03:44:40.834Z,23.09
2022-08-05T03:45:57.290Z,23.05
2022-08-05T03:46:40.802Z,22.99
2022-08-05T03:47:41.443Z,23.07
2022-08-05T03:48:40.771Z,22.94
2022-08-05T03:49:52.038Z,22.94
2022-08-05T03:50:40.742Z,22.87
2022-08-05T03:52:36.872Z,22.89
2022-08-05T03:54:59.221Z,22.87
2022-08-05T03:55:50.894Z,22.90
2022-08-05T03:55:52.466Z,22.84
2022-08-05T03:56:05.757Z,22.87
2022-08-05T03:56:41.162Z,22.96
2022-08-05T03:57:42.660Z,23.20
2022-08-05T03:58:41.107Z,23.29
2022-08-05T03:59:46.976Z,23.60
2022-08-05T04:00:42.112Z,23.72
2022-08-05T04:01:40.652Z,23.90
2022-08-05T04:02:51.868Z,23.92
2022-08-05T04:03:40.565Z,23.75
2022-08-05T04:04:40.545Z,23.61
2022-08-05T04:05:40.525Z,23.38
2022-08-05T04:06:47.510Z,23.22
2022-08-05T04:07:53.033Z,23.08
2022-08-05T04:08:40.490Z,22.99
2022-08-05T04:09:53.613Z,22.80
2022-08-05T04:10:40.464Z,22.94
2022-08-05T04:11:47.256Z,23.02
2022-08-05T04:13:04.054Z,22.92
2022-08-05T04:13:50.354Z,22.75
2022-08-05T04:14:40.395Z,22.59
2022-08-05T04:15:52.669Z,22.49
2022-08-05T04:16:40.363Z,22.41
2022-08-05T04:17:57.351Z,22.32
2022-08-05T04:18:40.334Z,22.17
2022-08-05T04:19:40.317Z,22.20
2022-08-05T04:20:41.385Z,22.20
2022-08-05T04:22:09.783Z,22.19
2022-08-05T04:22:40.269Z,22.17
2022-08-05T04:24:05.239Z,22.16
2022-08-05T04:24:44.603Z,22.13
2022-08-05T04:25:57.883Z,22.10
2022-08-05T04:26:40.221Z,22.12
2022-08-05T04:27:43.591Z,22.01
2022-08-05T04:28:40.187Z,22.01
2022-08-05T04:29:40.161Z,21.99
2022-08-05T04:30:40.153Z,21.95
2022-08-05T04:31:40.124Z,21.91
2022-08-05T04:32:40.113Z,21.76
2022-08-05T04:34:17.903Z,21.75
2022-08-05T04:34:43.353Z,21.63
2022-08-05T04:36:15.804Z,21.71
2022-08-05T04:36:49.713Z,21.60
2022-08-05T04:38:02.181Z,21.57
2022-08-05T04:38:40.282Z,21.54
2022-08-05T04:39:40.197Z,21.50
2022-08-05T04:40:44.539Z,21.45
2022-08-05T04:41:39.963Z,21.51
2022-08-05T04:42:39.946Z,21.35
2022-08-05T04:43:46.679Z,21.42
2022-08-05T04:44:39.913Z,21.29
2022-08-05T04:45:48.998Z,21.34
2022-08-05T04:46:39.883Z,21.35
2022-08-05T04:47:42.978Z,21.34
2022-08-05T04:48:39.848Z,21.24
2022-08-05T04:50:01.353Z,21.32
2022-08-05T04:51:03.721Z,21.24
2022-08-05T04:51:39.803Z,21.20
2022-08-05T04:52:39.784Z,21.19
2022-08-05T04:53:39.768Z,21.17
2022-08-05T04:54:39.750Z,21.08
2022-08-05T04:56:33.382Z,21.16
2022-08-05T04:56:39.718Z,21.08
2022-08-05T04:57:39.702Z,21.14
2022-08-05T04:58:39.696Z,21.17
2022-08-05T04:59:40.827Z,21.16
2022-08-05T05:00:39.664Z,21.26
2022-08-05T05:02:08.338Z,21.26
2022-08-05T05:02:41.902Z,21.29
2022-08-05T05:03:42.165Z,21.29
2022-08-05T05:04:47.574Z,21.29
2022-08-05T05:06:36.550Z,21.19
2022-08-05T05:06:44.409Z,21.19
2022-08-05T05:07:39.544Z,21.29
2022-08-05T05:08:42.874Z,21.29
2022-08-05T05:09:39.519Z,21.27
2022-08-05T05:10:39.491Z,21.24
2022-08-05T05:11:52.771Z,21.20
2022-08-05T05:12:39.460Z,21.21
2022-08-05T05:13:43.171Z,21.21
2022-08-05T05:14:49.396Z,21.26
2022-08-05T05:16:01.796Z,21.13
2022-08-05T05:16:39.395Z,21.23
2022-08-05T05:17:56.585Z,21.29
2022-08-05T05:18:39.367Z,21.26
2022-08-05T05:19:44.286Z,21.27
2022-08-05T05:20:39.331Z,21.32
2022-08-05T05:21:39.316Z,21.35
2022-08-05T05:22:40.714Z,21.34
2022-08-05T05:24:02.413Z,21.21
2022-08-05T05:24:58.900Z,21.35
2022-08-05T05:25:41.227Z,21.27
2022-08-05T05:26:39.832Z,21.26
2022-08-05T05:27:44.676Z,21.19
2022-08-05T05:28:42.902Z,21.20
2022-08-05T05:29:40.807Z,21.23
2022-08-05T05:30:39.174Z,21.16
2022-08-05T05:32:00.165Z,21.20
2022-08-05T05:32:39.140Z,21.23
2022-08-05T05:33:58.748Z,21.30
2022-08-05T05:34:39.108Z,21.36
2022-08-05T05:35:39.744Z,21.30
2022-08-05T05:36:39.082Z,21.36
2022-08-05T05:37:58.923Z,21.51
2022-08-05T05:38:39.052Z,21.51
2022-08-05T05:39:39.065Z,21.54
2022-08-05T05:40:42.502Z,21.60
2022-08-05T05:41:40.178Z,21.64
2022-08-05T05:42:38.983Z,21.72
2022-08-05T05:43:56.979Z,21.76
2022-08-05T05:44:44.389Z,21.82
2022-08-05T05:45:38.939Z,21.83
2022-08-05T05:46:38.918Z,21.78
2022-08-05T05:48:06.575Z,21.88
2022-08-05T05:48:38.889Z,21.98
2022-08-05T05:49:38.879Z,22.04
2022-08-05T05:50:44.128Z,22.07
2022-08-05T05:51:49.668Z,21.98
2022-08-05T05:52:40.723Z,22.02
2022-08-05T05:53:54.150Z,21.97
2022-08-05T05:54:50.976Z,21.92
2022-08-05T05:55:51.569Z,21.98
2022-08-05T05:56:38.768Z,21.99
2022-08-05T05:57:52.348Z,22.07
2022-08-05T05:58:38.753Z,22.02
2022-08-05T05:59:40.408Z,21.99
2022-08-05T06:00:38.710Z,21.97
2022-08-05T06:01:39.396Z,21.92
2022-08-05T06:02:38.675Z,22.06
2022-08-05T06:03:53.932Z,22.13
2022-08-05T06:04:38.676Z,22.14
2022-08-05T06:05:38.631Z,22.10
2022-08-05T06:06:38.616Z,22.22
2022-08-05T06:07:42.128Z,22.20
2022-08-05T06:08:39.669Z,22.22
2022-08-05T06:10:00.183Z,22.22
2022-08-05T06:10:52.452Z,22.22
2022-08-05T06:11:39.386Z,22.34
2022-08-05T06:12:42.088Z,22.35
2022-08-05T06:13:40.725Z,22.35
2022-08-05T06:14:40.223Z,22.52
2022-08-05T06:16:30.749Z,22.46
2022-08-05T06:16:38.462Z,22.69
2022-08-05T06:17:52.757Z,22.69
2022-08-05T06:18:39.358Z,22.69
2022-08-05T06:19:38.423Z,22.86
2022-08-05T06:20:38.405Z,22.78
2022-08-05T06:21:42.955Z,22.69
2022-08-05T06:22:40.414Z,22.62
2022-08-05T06:23:43.729Z,22.78
2022-08-05T06:24:38.363Z,22.87
2022-08-05T06:26:12.114Z,22.87
2022-08-05T06:26:38.342Z,23.01
2022-08-05T06:28:10.865Z,22.99
2022-08-05T06:28:38.289Z,22.99
2022-08-05T06:29:49.529Z,23.12
2022-08-05T06:30:38.264Z,23.12
2022-08-05T06:31:38.247Z,23.20
2022-08-05T06:32:38.225Z,23.20
2022-08-05T06:34:07.157Z,23.32
2022-08-05T06:34:38.210Z,23.40
2022-08-05T06:36:08.077Z,23.42
2022-08-05T06:36:56.745Z,23.53
2022-08-05T06:37:55.842Z,23.61
2022-08-05T06:38:38.145Z,23.85
2022-08-05T06:39:38.230Z,23.97
2022-08-05T06:40:38.116Z,23.97
2022-08-05T06:41:40.545Z,24.13
2022-08-05T06:42:39.888Z,24.24
2022-08-05T06:43:57.957Z,24.31
2022-08-05T06:44:38.070Z,24.49
2022-08-05T06:45:44.925Z,24.60
2022-08-05T06:46:38.041Z,24.64
2022-08-05T06:48:36.310Z,24.64
2022-08-05T06:48:56.235Z,24.67
2022-08-05T06:50:01.172Z,24.73
2022-08-05T06:50:37.981Z,24.77
2022-08-05T06:51:40.898Z,24.92
2022-08-05T06:52:40.397Z,24.82
2022-08-05T06:53:39.282Z,24.73
2022-08-05T06:54:37.927Z,24.80
2022-08-05T06:55:37.913Z,24.95
2022-08-05T06:56:37.900Z,25.05
2022-08-05T06:57:57.201Z,25.06
2022-08-05T06:58:38.186Z,25.22
2022-08-05T06:59:38.823Z,25.43
2022-08-05T07:00:37.909Z,25.43
2022-08-05T07:01:40.661Z,25.43
2022-08-05T07:02:37.836Z,25.69
2022-08-05T07:03:37.806Z,25.84
2022-08-05T07:04:37.791Z,25.93
2022-08-05T07:05:41.378Z,25.98
2022-08-05T07:06:37.773Z,26.11
2022-08-05T07:07:43.804Z,26.12
2022-08-05T07:08:37.745Z,26.29
2022-08-05T07:09:40.630Z,26.31
2022-08-05T07:10:37.722Z,26.55
2022-08-05T07:11:40.013Z,26.67
2022-08-05T07:12:37.697Z,26.76
2022-08-05T07:13:58.734Z,26.84
2022-08-05T07:14:37.681Z,26.81
2022-08-05T07:16:00.782Z,26.83
2022-08-05T07:18:00.539Z,27.14
2022-08-05T07:18:01.319Z,27.02
2022-08-05T07:18:37.623Z,27.11
2022-08-05T07:20:38.884Z,27.38
2022-08-05T07:22:00.242Z,27.39
2022-08-05T07:22:37.577Z,27.41
2022-08-05T07:23:37.596Z,27.43
2022-08-05T07:24:44.012Z,27.79
2022-08-05T07:25:56.273Z,27.50
2022-08-05T07:26:37.539Z,27.26
2022-08-05T07:27:56.429Z,27.31
2022-08-05T07:28:37.514Z,27.39
2022-08-05T07:30:27.961Z,27.61
2022-08-05T07:30:38.733Z,28.04
2022-08-05T07:31:41.047Z,28.03
2022-08-05T07:32:37.472Z,27.98
2022-08-05T07:33:37.673Z,28.09
2022-08-05T07:34:42.003Z,27.59
2022-08-05T07:36:02.607Z,27.53
2022-08-05T07:36:37.425Z,27.47
2022-08-05T07:37:39.395Z,27.43
2022-08-05T07:38:43.259Z,27.47
2022-08-05T07:40:25.951Z,27.48
2022-08-05T07:40:37.435Z,27.54
2022-08-05T07:42:14.610Z,27.48
2022-08-05T07:42:37.415Z,27.42
2022-08-05T07:43:37.352Z,27.48
2022-08-05T07:44:37.350Z,27.46
2022-08-05T07:45:56.489Z,27.16
2022-08-05T07:46:37.325Z,27.13
2022-08-05T07:47:42.324Z,27.10
2022-08-05T07:49:03.075Z,27.10
2022-08-05T07:49:43.358Z,27.01
2022-08-05T07:50:37.285Z,26.98
2022-08-05T07:51:40.627Z,27.13
2022-08-05T07:52:37.260Z,27.10
2022-08-05T07:53:50.573Z,27.19
2022-08-05T07:54:41.182Z,27.16
2022-08-05T07:56:05.121Z,27.32
2022-08-05T07:57:02.527Z,27.48
2022-08-05T07:57:58.858Z,27.33
2022-08-05T07:58:57.756Z,27.35
2022-08-05T07:59:39.709Z,27.24
2022-08-05T08:00:37.197Z,27.24
2022-08-05T08:01:41.536Z,27.24
2022-08-05T08:03:13.847Z,27.06
2022-08-05T08:03:44.631Z,26.99
2022-08-05T08:04:37.980Z,26.86
2022-08-05T08:05:39.842Z,26.95
2022-08-05T08:06:37.106Z,26.87
2022-08-05T08:07:39.687Z,26.72
2022-08-05T08:08:37.090Z,26.81
2022-08-05T08:09:37.470Z,26.89
2022-08-05T08:10:37.065Z,27.04
2022-08-05T08:11:47.092Z,27.26
2022-08-05T08:12:49.423Z,27.39
2022-08-05T08:13:42.778Z,27.20
2022-08-05T08:14:37.012Z,27.01
2022-08-05T08:16:35.915Z,26.89
2022-08-05T08:16:50.339Z,26.92
2022-08-05T08:17:36.992Z,26.86
2022-08-05T08:18:37.496Z,26.76
2022-08-05T08:20:10.277Z,26.79
2022-08-05T08:20:43.691Z,26.74
2022-08-05T08:21:36.940Z,26.76
2022-08-05T08:22:36.927Z,26.72
2022-08-05T08:24:01.768Z,26.76
2022-08-05T08:24:51.360Z,27.06
2022-08-05T08:25:59.747Z,27.13
2022-08-05T08:26:36.894Z,27.13
2022-08-05T08:27:45.038Z,26.98
2022-08-05T08:28:59.574Z,26.96
2022-08-05T08:30:06.675Z,26.79
2022-08-05T08:30:47.604Z,26.62
2022-08-05T08:31:36.826Z,26.57
2022-08-05T08:32:40.826Z,26.55
2022-08-05T08:33:37.964Z,26.49
2022-08-05T08:34:36.796Z,26.47
2022-08-05T08:35:41.607Z,26.47
2022-08-05T08:36:52.510Z,26.36
2022-08-05T08:37:36.775Z,26.49
2022-08-05T08:38:37.746Z,26.59
2022-08-05T08:39:37.165Z,26.55
2022-08-05T08:40:36.724Z,26.62
2022-08-05T08:41:51.808Z,26.68
2022-08-05T08:42:50.777Z,26.64
2022-08-05T08:45:17.126Z,26.64
2022-08-05T08:45:19.496Z,26.64
2022-08-05T08:45:36.662Z,26.58
2022-08-05T08:46:36.660Z,26.52
2022-08-05T08:48:06.381Z,26.52
2022-08-05T08:49:03.375Z,26.64
2022-08-05T08:50:22.655Z,26.64
2022-08-05T08:51:22.204Z,26.76
2022-08-05T08:52:03.574Z,26.69
2022-08-05T08:52:36.584Z,26.47
2022-08-05T08:53:36.575Z,26.27
2022-08-05T08:54:36.718Z,26.40
2022-08-05T08:56:02.976Z,26.17
2022-08-05T08:56:36.536Z,26.08
2022-08-05T08:57:48.378Z,25.90
2022-08-05T08:58:43.132Z,25.86
2022-08-05T08:59:36.516Z,25.91
2022-08-05T09:00:36.538Z,25.84
2022-08-05T09:01:36.482Z,25.90
2022-08-05T09:02:36.493Z,25.84
2022-08-05T09:03:40.726Z,25.86
2022-08-05T09:04:36.445Z,25.79
2022-08-05T09:05:39.019Z,25.77
2022-08-05T09:06:36.476Z,25.77
2022-08-05T09:07:39.981Z,25.75
2022-08-05T09:08:40.090Z,25.67
2022-08-05T09:09:36.391Z,25.65
2022-08-05T09:10:36.375Z,25.61
2022-08-05T09:11:51.025Z,25.47
2022-08-05T09:12:36.350Z,25.32
2022-08-05T09:14:01.114Z,25.31
2022-08-05T09:14:58.634Z,25.24
2022-08-05T09:15:37.028Z,25.12
2022-08-05T09:16:36.298Z,24.87
2022-08-05T09:17:42.591Z,24.91
2022-08-05T09:18:39.000Z,24.85
2022-08-05T09:19:55.115Z,24.79
2022-08-05T09:20:37.717Z,24.85
2022-08-05T09:22:23.073Z,24.76
2022-08-05T09:22:36.385Z,24.82
2022-08-05T09:23:37.290Z,24.83
2022-08-05T09:24:36.213Z,25.01
2022-08-05T09:26:02.797Z,25.09
2022-08-05T09:26:36.176Z,25.35
2022-08-05T09:28:03.779Z,25.34
2022-08-05T09:28:36.152Z,25.34
2022-08-05T09:29:36.136Z,25.39
2022-08-05T09:30:36.131Z,25.30
2022-08-05T09:32:40.168Z,25.44
2022-08-05T09:32:40.300Z,25.43
2022-08-05T09:33:36.088Z,25.47
2022-08-05T09:34:36.076Z,25.57
2022-08-05T09:35:36.057Z,25.62
2022-08-05T09:36:36.045Z,25.64
2022-08-05T09:38:16.621Z,25.65
2022-08-05T09:38:36.026Z,25.74
2022-08-05T09:39:41.935Z,25.75
2022-08-05T09:40:36.030Z,25.77
2022-08-05T09:41:39.004Z,25.84
2022-08-05T09:42:35.974Z,25.75
2022-08-05T09:43:41.927Z,25.80
2022-08-05T09:44:35.964Z,25.77
2022-08-05T09:46:06.996Z,25.77
2022-08-05T09:46:35.927Z,25.87
2022-08-05T09:47:55.197Z,26.04
2022-08-05T09:48:35.912Z,26.18
2022-08-05T09:49:54.804Z,26.32
2022-08-05T09:50:37.955Z,26.62
2022-08-05T09:51:36.542Z,26.95
2022-08-05T09:52:35.855Z,27.17
2022-08-05T09:53:54.556Z,27.43
2022-08-05T09:54:35.839Z,27.59
2022-08-05T09:55:57.053Z,27.59
2022-08-05T09:56:35.815Z,27.79
2022-08-05T09:57:39.533Z,28.44
2022-08-05T09:58:35.794Z,28.72
2022-08-05T09:59:37.104Z,28.65
2022-08-05T10:00:35.775Z,28.66
2022-08-05T10:01:35.767Z,28.41
2022-08-05T10:02:35.810Z,27.98
2022-08-05T10:03:38.673Z,27.98
2022-08-05T10:04:35.738Z,28.13
2022-08-05T10:05:35.732Z,28.23
2022-08-05T10:06:35.722Z,28.10
2022-08-05T10:07:50.385Z,27.95
2022-08-05T10:08:38.138Z,27.95
2022-08-05T10:09:45.121Z,28.01
2022-08-05T10:10:35.680Z,27.86
2022-08-05T10:11:35.705Z,28.04
2022-08-05T10:12:35.907Z,28.35
2022-08-05T10:13:45.853Z,28.87
2022-08-05T10:14:35.641Z,29.22
2022-08-05T10:15:35.639Z,29.62
2022-08-05T10:16:41.832Z,29.70
2022-08-05T10:17:37.583Z,29.68
2022-08-05T10:18:35.612Z,29.62
2022-08-05T10:20:04.504Z,29.55
2022-08-05T10:20:35.608Z,29.26
2022-08-05T10:21:40.204Z,28.73
2022-08-05T10:22:39.131Z,28.40
2022-08-05T10:23:59.900Z,28.44
2022-08-05T10:24:35.575Z,28.40
2022-08-05T10:25:35.556Z,28.40
2022-08-05T10:26:35.550Z,28.62
2022-08-05T10:28:09.145Z,28.48
2022-08-05T10:28:36.411Z,28.85
2022-08-05T10:30:06.719Z,29.25
2022-08-05T10:31:19.976Z,29.45
2022-08-05T10:32:51.790Z,29.59
2022-08-05T10:32:53.916Z,29.70
2022-08-05T10:33:36.018Z,29.72
2022-08-05T10:34:35.487Z,29.87
2022-08-05T10:35:40.572Z,29.66
2022-08-05T10:36:35.477Z,29.72
2022-08-05T10:37:40.286Z,29.70
2022-08-05T10:38:35.454Z,29.92
2022-08-05T10:39:59.386Z,29.79
2022-08-05T10:40:35.472Z,29.56
2022-08-05T10:41:44.923Z,29.56
2022-08-05T10:42:35.543Z,29.26
2022-08-05T10:43:35.939Z,28.78
2022-08-05T10:44:35.410Z,28.90
2022-08-05T10:45:40.111Z,29.18
2022-08-05T10:46:35.397Z,29.41
2022-08-05T10:47:35.390Z,29.50
2022-08-05T10:48:52.487Z,29.92
2022-08-05T10:49:48.772Z,30.12
2022-08-05T10:50:36.899Z,30.23
2022-08-05T10:51:35.377Z,30.11
2022-08-05T10:52:35.352Z,29.55
2022-08-05T10:53:35.361Z,29.41
2022-08-05T10:54:46.815Z,29.18
2022-08-05T10:56:03.520Z,28.90
2022-08-05T10:56:35.329Z,28.85
2022-08-05T10:57:35.321Z,29.13
2022-08-05T10:58:36.206Z,29.33
2022-08-05T11:00:03.155Z,29.52
2022-08-05T11:00:35.294Z,29.35
2022-08-05T11:01:54.982Z,29.82
2022-08-05T11:02:38.149Z,29.53
2022-08-05T11:03:35.295Z,29.56
2022-08-05T11:04:36.639Z,29.26
2022-08-05T11:05:35.291Z,28.73
2022-08-05T11:06:35.255Z,28.54
2022-08-05T11:08:02.998Z,28.28
2022-08-05T11:08:37.238Z,28.14
2022-08-05T11:09:45.451Z,28.01
2022-08-05T11:10:35.229Z,28.17
2022-08-05T11:11:44.608Z,27.99
2022-08-05T11:12:35.222Z,27.95
2022-08-05T11:13:35.209Z,28.03
2022-08-05T11:15:01.315Z,27.92
2022-08-05T11:16:00.938Z,27.99
2022-08-05T11:16:56.086Z,28.13
2022-08-05T11:17:58.882Z,28.19
2022-08-05T11:18:35.189Z,28.25
2022-08-05T11:20:10.821Z,28.68
2022-08-05T11:20:35.150Z,29.19
2022-08-05T11:21:48.971Z,29.63
2022-08-05T11:22:35.167Z,29.35
2022-08-05T11:24:04.528Z,29.15
2022-08-05T11:24:35.117Z,28.72
2022-08-05T11:26:04.943Z,28.78
2022-08-05T11:26:35.105Z,28.56
2022-08-05T11:27:50.824Z,28.54
2022-08-05T11:28:36.033Z,28.47
2022-08-05T11:29:35.079Z,28.47
2022-08-05T11:30:35.081Z,28.35
2022-08-05T11:31:58.122Z,28.33
2022-08-05T11:32:35.063Z,28.04
2022-08-05T11:33:45.997Z,28.28
2022-08-05T11:34:35.045Z,28.36
2022-08-05T11:35:35.038Z,28.23
2022-08-05T11:36:42.883Z,28.16
2022-08-05T11:38:28.166Z,28.14
2022-08-05T11:38:37.143Z,28.16
2022-08-05T11:39:35.060Z,28.11
2022-08-05T11:40:35.002Z,28.25
2022-08-05T11:41:58.091Z,28.56
2022-08-05T11:42:40.581Z,28.31
2022-08-05T11:44:04.968Z,28.23
2022-08-05T11:44:52.740Z,28.35
2022-08-05T11:46:23.490Z,28.58
2022-08-05T11:46:35.026Z,28.68
2022-08-05T11:47:48.932Z,28.47
2022-08-05T11:48:34.963Z,28.22
2022-08-05T11:49:34.936Z,28.10
2022-08-05T11:50:34.920Z,28.09
2022-08-05T11:51:43.600Z,27.89
2022-08-05T11:52:34.902Z,28.03
2022-08-05T11:53:40.942Z,27.92
2022-08-05T11:54:35.105Z,27.98
2022-08-05T11:55:36.275Z,27.92
2022-08-05T11:56:41.046Z,27.99
2022-08-05T11:58:07.943Z,28.01
2022-08-05T11:58:34.859Z,27.91
2022-08-05T11:59:49.530Z,27.98
2022-08-05T12:00:38.549Z,28.16
2022-08-05T12:01:34.836Z,28.09
2022-08-05T12:02:36.124Z,28.04
2022-08-05T12:03:34.842Z,28.03
2022-08-05T12:04:34.819Z,28.22
2022-08-05T12:05:39.862Z,28.35
2022-08-05T12:06:34.794Z,28.44
2022-08-05T12:08:03.274Z,28.44
2022-08-05T12:08:34.772Z,28.36
2022-08-05T12:09:39.258Z,28.40
2022-08-05T12:10:43.442Z,28.28
2022-08-05T12:11:40.212Z,28.48
2022-08-05T12:12:34.753Z,28.31
2022-08-05T12:13:48.954Z,28.32
2022-08-05T12:14:34.736Z,27.95
2022-08-05T12:15:37.974Z,27.95
2022-08-05T12:16:34.712Z,27.88
2022-08-05T12:18:00.830Z,27.67
2022-08-05T12:18:34.696Z,27.73
2022-08-05T12:20:27.718Z,28.09
2022-08-05T12:20:34.725Z,28.13
2022-08-05T12:21:39.161Z,28.26
2022-08-05T12:22:34.799Z,28.43
2022-08-05T12:23:34.660Z,28.65
2022-08-05T12:24:34.652Z,28.48
2022-08-05T12:25:34.639Z,28.56
2022-08-05T12:26:34.634Z,28.46
2022-08-05T12:27:34.833Z,28.41
2022-08-05T12:28:34.619Z,28.33
2022-08-05T12:29:38.744Z,28.31
2022-08-05T12:30:34.843Z,28.35
2022-08-05T12:31:45.954Z,28.32
2022-08-05T12:32:34.586Z,28.36
2022-08-05T12:33:36.526Z,28.40
2022-08-05T12:34:35.702Z,28.50
2022-08-05T12:35:37.186Z,28.81
2022-08-05T12:36:34.623Z,28.70
2022-08-05T12:37:34.605Z,28.75
2022-08-05T12:38:34.536Z,28.77
2022-08-05T12:39:38.554Z,28.87
2022-08-05T12:40:34.525Z,28.84
2022-08-05T12:41:34.737Z,28.32
2022-08-05T12:42:34.505Z,28.06
2022-08-05T12:43:34.498Z,27.88
2022-08-05T12:44:34.513Z,27.92
2022-08-05T12:45:49.808Z,27.99
2022-08-05T12:46:34.484Z,28.01
2022-08-05T12:47:34.490Z,27.99
2022-08-05T12:48:34.473Z,28.10
2022-08-05T12:50:04.198Z,28.40
2022-08-05T12:50:34.443Z,28.50
2022-08-05T12:52:13.620Z,28.73
2022-08-05T12:52:38.754Z,28.75
2022-08-05T12:53:37.041Z,28.82